Strona główna
METAR-TAF:

METAR-TAF

Lotnisko :

Madison, Indiana, Stany Zjednoczone

Szerokość geograficzna: 38-45-36N, Długość geograficzna: 085-27-53W, wysokość: 250 m

Aktualna obserwacja pogody

Raport powstał 35 minut temu, godzina 12:56 UTC
Wiatr 8 kt od południowy zachód
Temperatura 24°C
Wilgotność 61%
Ciśnienie 1015 hPa
Widzialność: 16.1 km
bezchmurnie

METAR: KIMS 031256Z AUTO 23008KT 10SM CLR 24/16 A2998 RMK AO1

czas: 09:31 (13:31 UTC)


TAF: brakujący

Obserwacja i prognoza pogody dla ponad 4000 lotnisk (raport METAR i TAF).

Dostępne stacje oznaczono żółtymi i czerwonymi punktami na mapie.

Najedź kursorem aby zobaczyć nazwę stacji.

Kliknij aby zobaczyć obserwacje i prognozy pogody.

Aby zmienić mapę: kliknij na zielony przycisk z czarnym krzyżykiem, aby powiększyć; na zielony przycisk z myślnikiem, aby pomniejszyć; na zielone strzałki, aby przejść do map sąsiednich.


METAR-TAF: